Time;durP1;ratioP1;P1;durP2;ratioP2;P2;SDS_P1;SDS_P2;PMS_P1;PMS_P2;Temp;Humidity;BMP_temperature;BMP_pressure;BME280_temperature;BME280_humidity;BME280_pressure;Samples;Min_cycle;Max_cycle;Signal;HPM_P1;HPM_P2
2020/12/24 00:01:14;;;;;;;10.33;1.77;;;;;;;;;;5044432;28;20260;-67
2020/12/24 00:03:39;;;;;;;13.53;2.07;;;;;;;;;;5044622;28;20313;-67
2020/12/24 00:06:04;;;;;;;15.17;1.73;;;;;;;;;;5026732;28;20260;-67
2020/12/24 00:08:29;;;;;;;19.67;1.90;;;;;;;;;;5044025;28;20340;-67
2020/12/24 00:10:54;;;;;;;14.20;2.33;;;;;;;;;;5027277;28;20298;-67
2020/12/24 00:13:19;;;;;;;13.67;1.70;;;;;;;;;;5045265;28;20268;-67
2020/12/24 00:15:44;;;;;;;12.90;2.83;;;;;;;;;;5044829;28;20275;-67
2020/12/24 00:18:10;;;;;;;18.10;2.70;;;;;;;;;;5044892;28;20279;-67
2020/12/24 00:20:35;;;;;;;11.93;1.80;;;;;;;;;;5045245;28;20370;-67
2020/12/24 00:23:00;;;;;;;11.38;1.70;;;;;;;;;;5045833;28;20025;-67
2020/12/24 00:25:25;;;;;;;11.07;2.13;;;;;;;;;;5044671;28;20040;-68
2020/12/24 00:27:51;;;;;;;11.57;1.90;;;;;;;;;;5044700;28;20081;-68
2020/12/24 00:30:16;;;;;;;13.93;2.07;;;;;;;;;;5045211;28;20045;-67
2020/12/24 00:32:41;;;;;;;12.68;1.65;;;;;;;;;;5044810;28;20751;-67
2020/12/24 00:35:06;;;;;;;12.57;1.70;;;;;;;;;;5045532;28;20489;-67
2020/12/24 00:37:31;;;;;;;11.38;1.60;;;;;;;;;;5044798;28;20085;-67
2020/12/24 00:39:57;;;;;;;8.63;1.58;;;;;;;;;;5044626;28;20028;-68
2020/12/24 00:42:22;;;;;;;5.68;0.85;;;;;;;;;;5045364;28;20684;-68
2020/12/24 00:44:47;;;;;;;10.15;1.75;;;;;;;;;;5044650;28;20056;-67
2020/12/24 00:47:12;;;;;;;14.17;2.27;;;;;;;;;;5043663;28;20040;-67
2020/12/24 00:49:38;;;;;;;9.55;1.42;;;;;;;;;;5044795;28;20382;-67
2020/12/24 00:52:03;;;;;;;13.60;1.33;;;;;;;;;;5045047;28;20071;-67
2020/12/24 00:54:28;;;;;;;18.27;3.38;;;;;;;;;;5043870;28;20119;-68
2020/12/24 00:56:53;;;;;;;11.55;1.02;;;;;;;;;;5043413;28;20037;-67
2020/12/24 00:59:18;;;;;;;14.50;2.40;;;;;;;;;;5044852;28;20093;-67
2020/12/24 01:01:43;;;;;;;15.47;2.73;;;;;;;;;;5044499;28;20260;-68
2020/12/24 01:04:09;;;;;;;10.20;1.30;;;;;;;;;;5043580;28;20350;-68
2020/12/24 01:06:34;;;;;;;6.20;2.28;;;;;;;;;;5044401;28;20474;-68
2020/12/24 01:08:59;;;;;;;13.73;1.60;;;;;;;;;;5044178;28;20052;-67
2020/12/24 01:11:28;;;;;;;9.68;1.83;;;;;;;;;;5044094;28;20067;-68
2020/12/24 01:13:53;;;;;;;12.70;1.73;;;;;;;;;;5026358;28;20075;-67
2020/12/24 01:16:19;;;;;;;39.55;3.42;;;;;;;;;;5043859;28;21254;-67
2020/12/24 01:18:45;;;;;;;19.13;3.23;;;;;;;;;;5042879;28;20017;-67
2020/12/24 01:21:10;;;;;;;14.43;2.30;;;;;;;;;;5043525;28;20263;-68
2020/12/24 01:23:35;;;;;;;8.40;1.67;;;;;;;;;;5044298;28;20023;-67
2020/12/24 01:26:00;;;;;;;10.97;1.70;;;;;;;;;;5042943;28;20341;-67
2020/12/24 01:28:25;;;;;;;11.30;2.10;;;;;;;;;;5043316;28;20264;-67
2020/12/24 01:30:50;;;;;;;16.37;1.97;;;;;;;;;;5042767;28;20441;-67
2020/12/24 01:33:16;;;;;;;4.80;0.77;;;;;;;;;;5043253;28;20271;-68
2020/12/24 01:35:41;;;;;;;16.92;1.95;;;;;;;;;;5043815;28;20108;-67
2020/12/24 01:38:06;;;;;;;17.08;2.53;;;;;;;;;;5043711;28;20079;-67
2020/12/24 01:40:31;;;;;;;8.80;1.03;;;;;;;;;;5043366;28;20556;-67
2020/12/24 01:42:56;;;;;;;9.40;1.93;;;;;;;;;;5043361;28;20345;-67
2020/12/24 01:45:21;;;;;;;18.97;2.00;;;;;;;;;;5043759;28;20832;-67
2020/12/24 01:47:47;;;;;;;9.67;1.37;;;;;;;;;;5042951;28;20313;-67
2020/12/24 01:50:12;;;;;;;11.57;2.87;;;;;;;;;;5043899;28;20796;-67
2020/12/24 01:52:37;;;;;;;14.85;3.10;;;;;;;;;;5042888;28;20329;-67
2020/12/24 01:55:08;;;;;;;13.40;2.03;;;;;;;;;;5044382;28;20037;-67
2020/12/24 01:57:33;;;;;;;9.57;1.63;;;;;;;;;;5043287;28;20035;-67
2020/12/24 01:59:59;;;;;;;15.82;1.98;;;;;;;;;;5043394;28;20049;-67
2020/12/24 02:02:24;;;;;;;12.50;1.80;;;;;;;;;;5043208;28;20432;-67
2020/12/24 02:04:50;;;;;;;14.73;1.85;;;;;;;;;;5042799;28;20032;-67
2020/12/24 02:07:16;;;;;;;11.02;2.17;;;;;;;;;;5042224;28;20021;-67
2020/12/24 02:09:43;;;;;;;20.02;2.50;;;;;;;;;;5042781;28;20020;-67
2020/12/24 02:12:09;;;;;;;10.23;1.70;;;;;;;;;;5043340;28;20025;-67
2020/12/24 02:14:34;;;;;;;24.73;2.38;;;;;;;;;;5042790;28;20587;-68
2020/12/24 02:16:59;;;;;;;8.03;1.50;;;;;;;;;;5042814;28;20037;-67
2020/12/24 02:19:24;;;;;;;11.33;2.07;;;;;;;;;;5042328;28;20271;-67
2020/12/24 02:21:49;;;;;;;12.77;1.83;;;;;;;;;;5042729;28;20266;-67
2020/12/24 02:24:14;;;;;;;14.67;1.87;;;;;;;;;;5043004;28;20636;-67
2020/12/24 02:26:40;;;;;;;7.93;2.10;;;;;;;;;;5042514;28;20274;-66
2020/12/24 02:29:05;;;;;;;8.37;1.33;;;;;;;;;;5042677;28;20264;-67
2020/12/24 02:31:30;;;;;;;7.35;1.30;;;;;;;;;;5041472;28;21041;-67
2020/12/24 02:33:55;;;;;;;12.27;2.53;;;;;;;;;;5042644;28;20485;-66
2020/12/24 02:36:20;;;;;;;10.27;1.60;;;;;;;;;;5042708;28;20287;-68
2020/12/24 02:38:46;;;;;;;10.60;1.73;;;;;;;;;;5042234;28;20025;-67
2020/12/24 02:41:11;;;;;;;16.50;1.52;;;;;;;;;;5033726;28;20013;-67
2020/12/24 02:43:36;;;;;;;12.65;2.45;;;;;;;;;;5042822;28;20420;-67
2020/12/24 02:46:02;;;;;;;11.23;1.40;;;;;;;;;;5043651;28;20058;-67
2020/12/24 02:48:27;;;;;;;16.50;2.00;;;;;;;;;;5042489;28;20131;-67
2020/12/24 02:50:52;;;;;;;9.70;1.02;;;;;;;;;;5041751;28;20028;-67
2020/12/24 02:53:17;;;;;;;11.45;2.08;;;;;;;;;;5042222;28;20064;-67
2020/12/24 02:55:44;;;;;;;13.90;1.80;;;;;;;;;;5041978;28;20119;-66
2020/12/24 02:58:09;;;;;;;6.18;2.03;;;;;;;;;;5039796;28;20291;-67
2020/12/24 03:00:34;;;;;;;10.18;2.78;;;;;;;;;;5043148;28;20079;-66
2020/12/24 03:02:59;;;;;;;15.35;1.92;;;;;;;;;;5041840;28;20033;-66
2020/12/24 03:05:25;;;;;;;10.80;1.85;;;;;;;;;;5042284;28;20038;-67
2020/12/24 03:07:51;;;;;;;9.50;1.40;;;;;;;;;;5042097;28;20090;-67
2020/12/24 03:10:16;;;;;;;21.05;1.83;;;;;;;;;;5042355;28;20039;-67
2020/12/24 03:12:42;;;;;;;7.68;1.55;;;;;;;;;;5042417;28;20032;-67
2020/12/24 03:15:07;;;;;;;13.85;1.52;;;;;;;;;;5042764;28;20021;-67
2020/12/24 03:17:32;;;;;;;7.95;1.02;;;;;;;;;;5042219;28;20056;-68
2020/12/24 03:19:58;;;;;;;10.32;1.83;;;;;;;;;;5042240;28;20066;-67
2020/12/24 03:22:23;;;;;;;12.68;1.58;;;;;;;;;;5041613;28;20643;-66
2020/12/24 03:24:48;;;;;;;13.50;2.10;;;;;;;;;;5042571;28;20469;-67
2020/12/24 03:27:13;;;;;;;4.87;1.00;;;;;;;;;;5041507;28;20355;-66
2020/12/24 03:29:38;;;;;;;9.65;1.52;;;;;;;;;;5042115;28;20953;-67
2020/12/24 03:32:03;;;;;;;8.15;1.30;;;;;;;;;;5042349;28;20055;-67
2020/12/24 03:34:29;;;;;;;6.33;1.17;;;;;;;;;;5042319;28;20408;-67
2020/12/24 03:36:54;;;;;;;8.18;1.38;;;;;;;;;;5041839;28;20288;-67
2020/12/24 03:39:19;;;;;;;8.93;1.80;;;;;;;;;;5042242;28;20075;-67
2020/12/24 03:41:44;;;;;;;14.68;1.75;;;;;;;;;;5041695;28;20032;-67
2020/12/24 03:44:09;;;;;;;10.82;2.33;;;;;;;;;;5045866;28;20021;-67
2020/12/24 03:46:35;;;;;;;9.50;1.50;;;;;;;;;;5045812;28;20025;-67
2020/12/24 03:49:01;;;;;;;13.25;2.05;;;;;;;;;;5045151;28;20858;-67
2020/12/24 03:51:26;;;;;;;10.77;1.63;;;;;;;;;;5045151;28;20036;-67
2020/12/24 03:53:51;;;;;;;18.08;1.60;;;;;;;;;;5045749;28;20037;-67
2020/12/24 03:56:16;;;;;;;9.93;1.87;;;;;;;;;;5044505;28;20048;-67
2020/12/24 03:58:41;;;;;;;11.50;1.95;;;;;;;;;;5044630;28;20267;-66
2020/12/24 04:01:06;;;;;;;15.80;1.60;;;;;;;;;;5048000;28;20028;-66
2020/12/24 04:03:32;;;;;;;7.40;1.55;;;;;;;;;;5044883;28;20381;-67
2020/12/24 04:05:57;;;;;;;19.37;2.27;;;;;;;;;;5045518;28;20116;-67
2020/12/24 04:08:22;;;;;;;13.80;1.93;;;;;;;;;;5044938;28;20298;-67
2020/12/24 04:10:48;;;;;;;10.88;1.55;;;;;;;;;;5044674;28;20279;-67
2020/12/24 04:13:13;;;;;;;19.17;1.57;;;;;;;;;;5045674;28;20094;-67
2020/12/24 04:15:38;;;;;;;8.80;1.08;;;;;;;;;;5045135;28;20267;-67
2020/12/24 04:18:03;;;;;;;9.88;2.00;;;;;;;;;;5045287;28;20093;-67
2020/12/24 04:20:28;;;;;;;21.47;2.60;;;;;;;;;;5044846;28;20151;-67
2020/12/24 04:22:54;;;;;;;17.95;1.75;;;;;;;;;;5044968;28;20804;-68
2020/12/24 04:25:19;;;;;;;12.03;1.90;;;;;;;;;;5044691;28;20481;-68
2020/12/24 04:27:44;;;;;;;11.50;1.70;;;;;;;;;;5044416;28;20317;-70
2020/12/24 04:30:09;;;;;;;19.27;1.97;;;;;;;;;;5045611;28;20634;-68
2020/12/24 04:32:35;;;;;;;15.33;1.83;;;;;;;;;;5044871;28;20370;-69
2020/12/24 04:35:00;;;;;;;9.15;1.65;;;;;;;;;;5026900;28;20363;-68
2020/12/24 04:37:25;;;;;;;14.45;2.13;;;;;;;;;;5044775;28;20067;-68
2020/12/24 04:39:50;;;;;;;14.13;1.83;;;;;;;;;;5042855;28;20107;-68
2020/12/24 04:42:16;;;;;;;5.75;1.33;;;;;;;;;;5044576;28;20032;-68
2020/12/24 04:44:42;;;;;;;8.88;2.08;;;;;;;;;;5044748;28;20043;-68
2020/12/24 04:47:07;;;;;;;14.65;1.70;;;;;;;;;;5044615;28;20021;-68
2020/12/24 04:49:32;;;;;;;14.87;2.10;;;;;;;;;;5044430;28;20104;-69
2020/12/24 04:51:59;;;;;;;6.03;1.70;;;;;;;;;;5044248;28;20268;-68
2020/12/24 04:54:25;;;;;;;21.98;1.95;;;;;;;;;;5043454;28;20029;-70
2020/12/24 04:56:51;;;;;;;15.98;1.95;;;;;;;;;;5043684;28;20024;-70
2020/12/24 04:59:19;;;;;;;11.38;1.60;;;;;;;;;;5044287;28;20482;-68
2020/12/24 05:01:49;;;;;;;19.73;2.55;;;;;;;;;;5026197;28;20075;-69
2020/12/24 05:04:16;;;;;;;14.50;2.25;;;;;;;;;;5042921;28;20029;-69
2020/12/24 05:06:41;;;;;;;8.93;1.40;;;;;;;;;;5042065;28;20417;-70
2020/12/24 05:09:06;;;;;;;8.38;1.90;;;;;;;;;;5044183;28;20032;-68
2020/12/24 05:11:32;;;;;;;12.63;2.15;;;;;;;;;;5043814;28;20074;-69
2020/12/24 05:14:14;;;;;;;11.98;1.90;;;;;;;;;;5043960;28;20065;-69
2020/12/24 05:16:39;;;;;;;12.20;1.90;;;;;;;;;;5044444;28;20025;-69
2020/12/24 05:19:10;;;;;;;15.80;2.00;;;;;;;;;;5043683;28;20083;-69
2020/12/24 05:21:37;;;;;;;;;;;;;;;;;;5044806;28;20276;-69
2020/12/24 05:24:07;;;;;;;8.00;1.75;;;;;;;;;;5026165;28;20453;-69
2020/12/24 05:26:32;;;;;;;15.32;1.63;;;;;;;;;;5043721;28;20035;-70
2020/12/24 05:29:09;;;;;;;6.27;1.73;;;;;;;;;;5042651;28;20549;-69
2020/12/24 05:31:35;;;;;;;14.25;2.08;;;;;;;;;;5044737;28;20295;-70
2020/12/24 05:34:00;;;;;;;9.63;1.80;;;;;;;;;;5043828;28;20481;-69
2020/12/24 05:36:25;;;;;;;15.70;2.40;;;;;;;;;;5042916;28;20341;-69
2020/12/24 05:38:51;;;;;;;15.48;2.28;;;;;;;;;;5042803;28;20936;-69
2020/12/24 05:41:31;;;;;;;13.00;1.60;;;;;;;;;;5042861;28;20025;-70
2020/12/24 05:43:56;;;;;;;;;;;;;;;;;;5025234;28;20059;-69
2020/12/24 05:46:22;;;;;;;13.95;1.92;;;;;;;;;;5042794;28;19951;-69
2020/12/24 05:48:47;;;;;;;16.00;2.30;;;;;;;;;;5043109;28;20062;-69
2020/12/24 05:51:19;;;;;;;21.60;2.08;;;;;;;;;;5043183;28;20099;-70
2020/12/24 05:53:45;;;;;;;11.40;1.65;;;;;;;;;;5040729;28;20025;-68
2020/12/24 05:56:18;;;;;;;18.27;2.28;;;;;;;;;;5040026;28;20504;-69
2020/12/24 05:58:45;;;;;;;14.75;2.17;;;;;;;;;;5042035;28;20118;-69
2020/12/24 06:01:12;;;;;;;13.55;1.88;;;;;;;;;;5043326;28;20065;-69
2020/12/24 06:03:43;;;;;;;24.08;2.47;;;;;;;;;;5042561;28;20095;-69
2020/12/24 06:06:12;;;;;;;17.00;4.60;;;;;;;;;;5043076;28;20028;-69
2020/12/24 06:08:43;;;;;;;25.67;8.75;;;;;;;;;;5043103;28;20033;-70
2020/12/24 06:11:10;;;;;;;8.38;2.85;;;;;;;;;;5042964;28;20170;-69
2020/12/24 06:13:43;;;;;;;11.05;1.95;;;;;;;;;;5043201;28;20034;-69
2020/12/24 06:16:09;;;;;;;7.82;1.52;;;;;;;;;;5042604;28;20497;-69
2020/12/24 06:18:36;;;;;;;13.95;1.58;;;;;;;;;;5043310;28;20025;-69
2020/12/24 06:21:01;;;;;;;15.93;1.60;;;;;;;;;;5042897;28;20021;-69
2020/12/24 06:23:27;;;;;;;12.73;2.28;;;;;;;;;;5043119;28;20094;-69
2020/12/24 06:25:53;;;;;;;12.52;1.92;;;;;;;;;;5042075;28;20393;-68
2020/12/24 06:28:19;;;;;;;7.68;1.40;;;;;;;;;;5042476;28;20347;-69
2020/12/24 06:30:44;;;;;;;6.63;1.38;;;;;;;;;;5042699;28;20070;-70
2020/12/24 06:33:09;;;;;;;8.85;2.00;;;;;;;;;;5042899;28;20059;-71
2020/12/24 06:35:34;;;;;;;6.13;1.30;;;;;;;;;;5042927;28;20029;-69
2020/12/24 06:38:00;;;;;;;9.18;1.38;;;;;;;;;;5044998;28;20350;-68
2020/12/24 06:40:29;;;;;;;7.47;1.20;;;;;;;;;;5042936;28;20025;-69
2020/12/24 06:42:54;;;;;;;12.45;1.70;;;;;;;;;;5042692;28;20805;-69
2020/12/24 06:45:19;;;;;;;11.88;1.55;;;;;;;;;;5042984;28;20163;-69
2020/12/24 06:48:04;;;;;;;7.00;1.25;;;;;;;;;;5042213;28;20055;-69
2020/12/24 06:50:33;;;;;;;9.55;1.95;;;;;;;;;;5042409;28;20275;-69
2020/12/24 06:53:17;;;;;;;7.28;1.42;;;;;;;;;;5042756;28;20027;-68
2020/12/24 06:55:42;;;;;;;4.88;1.10;;;;;;;;;;5040799;28;20078;-69
2020/12/24 06:58:07;;;;;;;6.60;1.50;;;;;;;;;;5041710;28;20025;-69
2020/12/24 07:00:33;;;;;;;2.97;1.00;;;;;;;;;;5042340;28;21049;-70
2020/12/24 07:03:18;;;;;;;6.80;1.13;;;;;;;;;;5041587;28;20025;-69
2020/12/24 07:05:43;;;;;;;10.00;1.08;;;;;;;;;;5040304;28;20299;-69
2020/12/24 07:08:28;;;;;;;10.55;1.40;;;;;;;;;;5042638;28;20123;-70
2020/12/24 07:10:53;;;;;;;11.15;1.77;;;;;;;;;;5042181;28;20040;-69
2020/12/24 07:13:34;;;;;;;6.80;1.10;;;;;;;;;;5041368;28;20025;-69
2020/12/24 07:16:00;;;;;;;1.58;0.73;;;;;;;;;;5042436;28;20033;-69
2020/12/24 07:18:27;;;;;;;9.82;1.08;;;;;;;;;;5044602;28;20040;-70
2020/12/24 07:20:53;;;;;;;5.65;1.35;;;;;;;;;;5045382;28;20385;-68
2020/12/24 07:23:48;;;;;;;9.65;0.88;;;;;;;;;;5045934;28;20029;-69
2020/12/24 07:26:13;;;;;;;6.82;1.10;;;;;;;;;;5031821;28;20398;-70
2020/12/24 07:28:39;;;;;;;5.15;1.00;;;;;;;;;;5045687;28;20024;-69
2020/12/24 07:31:05;;;;;;;2.70;0.75;;;;;;;;;;5045331;28;20389;-70
2020/12/24 07:33:31;;;;;;;8.05;0.80;;;;;;;;;;5045665;28;20090;-69
2020/12/24 07:35:56;;;;;;;10.55;0.95;;;;;;;;;;5045907;28;20452;-68
2020/12/24 07:38:22;;;;;;;5.93;1.45;;;;;;;;;;5044418;28;20078;-69
2020/12/24 07:40:48;;;;;;;4.18;0.75;;;;;;;;;;5045548;28;20025;-69
2020/12/24 07:43:13;;;;;;;8.15;1.17;;;;;;;;;;5045057;28;20036;-70
2020/12/24 07:45:39;;;;;;;7.13;1.52;;;;;;;;;;5045367;28;20073;-69
2020/12/24 07:48:11;;;;;;;3.10;0.90;;;;;;;;;;5045570;28;20397;-69
2020/12/24 07:50:36;;;;;;;2.80;0.63;;;;;;;;;;5044618;28;20063;-69
2020/12/24 07:53:02;;;;;;;3.75;0.80;;;;;;;;;;5045857;28;20122;-69
2020/12/24 07:55:27;;;;;;;6.00;0.90;;;;;;;;;;5044045;28;20068;-69
2020/12/24 07:58:04;;;;;;;4.33;0.80;;;;;;;;;;5044554;28;20035;-69
2020/12/24 08:00:29;;;;;;;6.22;0.70;;;;;;;;;;5045627;28;20270;-69
2020/12/24 08:03:00;;;;;;;6.23;1.00;;;;;;;;;;5025978;28;20436;-69
2020/12/24 08:05:25;;;;;;;4.32;0.70;;;;;;;;;;5041355;28;20337;-70
2020/12/24 08:07:51;;;;;;;6.88;1.70;;;;;;;;;;5045318;28;20634;-69
2020/12/24 08:10:16;;;;;;;5.53;1.30;;;;;;;;;;5043827;28;20040;-71
2020/12/24 08:12:41;;;;;;;4.32;0.73;;;;;;;;;;5044600;28;20017;-69
2020/12/24 08:15:14;;;;;;;4.97;0.80;;;;;;;;;;5044806;28;20124;-69
2020/12/24 08:17:43;;;;;;;6.00;1.30;;;;;;;;;;5042390;28;20381;-70
2020/12/24 08:20:10;;;;;;;8.52;0.98;;;;;;;;;;5043885;28;20044;-71
2020/12/24 08:22:41;;;;;;;2.67;0.70;;;;;;;;;;5028126;28;20021;-69
2020/12/24 08:25:07;;;;;;;2.20;0.70;;;;;;;;;;5043841;28;20032;-70
2020/12/24 08:27:33;;;;;;;4.85;0.70;;;;;;;;;;5042366;28;20067;-69
2020/12/24 08:29:59;;;;;;;5.13;0.88;;;;;;;;;;5023206;28;20060;-69
2020/12/24 08:32:24;;;;;;;5.65;0.75;;;;;;;;;;5044606;28;20057;-69
2020/12/24 08:34:50;;;;;;;4.97;1.00;;;;;;;;;;5045275;28;20600;-69
2020/12/24 08:37:25;;;;;;;3.10;0.98;;;;;;;;;;5043776;28;20029;-70
2020/12/24 08:39:50;;;;;;;5.07;1.35;;;;;;;;;;5042312;28;20036;-69
2020/12/24 08:42:16;;;;;;;3.67;0.70;;;;;;;;;;5042700;28;20477;-69
2020/12/24 08:44:42;;;;;;;4.32;1.00;;;;;;;;;;5042022;28;20252;-70
2020/12/24 08:47:08;;;;;;;3.75;0.88;;;;;;;;;;5042528;28;20036;-70
2020/12/24 08:49:39;;;;;;;3.63;0.70;;;;;;;;;;5043298;28;20029;-70
2020/12/24 08:52:08;;;;;;;3.03;0.93;;;;;;;;;;5041684;28;20098;-70
2020/12/24 08:54:33;;;;;;;6.35;1.45;;;;;;;;;;5043445;28;20701;-69
2020/12/24 08:56:58;;;;;;;6.18;1.20;;;;;;;;;;5042972;28;20024;-70
2020/12/24 08:59:23;;;;;;;9.40;2.50;;;;;;;;;;5042835;28;20140;-69
2020/12/24 09:01:49;;;;;;;4.27;1.43;;;;;;;;;;5042044;28;20029;-69
2020/12/24 09:04:15;;;;;;;5.28;1.30;;;;;;;;;;5041401;28;20326;-69
2020/12/24 09:06:41;;;;;;;16.98;2.00;;;;;;;;;;5044161;28;20809;-69
2020/12/24 09:09:06;;;;;;;10.80;1.95;;;;;;;;;;5039778;28;20036;-70
2020/12/24 09:11:32;;;;;;;19.02;2.97;;;;;;;;;;5043507;28;20118;-69
2020/12/24 09:13:58;;;;;;;5.93;1.90;;;;;;;;;;5040919;28;20056;-70
2020/12/24 09:16:23;;;;;;;13.95;3.15;;;;;;;;;;5043174;28;20032;-69
2020/12/24 09:18:59;;;;;;;11.70;2.85;;;;;;;;;;5042287;28;20021;-70
2020/12/24 09:21:24;;;;;;;15.45;4.13;;;;;;;;;;5041775;28;20036;-69
2020/12/24 09:23:49;;;;;;;16.27;6.30;;;;;;;;;;5043245;28;20033;-69
2020/12/24 09:26:14;;;;;;;15.60;6.55;;;;;;;;;;5043312;28;20275;-69
2020/12/24 09:28:40;;;;;;;16.73;4.50;;;;;;;;;;5042666;28;20128;-69
2020/12/24 09:31:05;;;;;;;13.63;2.93;;;;;;;;;;5041681;28;20286;-68
2020/12/24 09:33:30;;;;;;;7.63;2.90;;;;;;;;;;5040902;28;21156;-68
2020/12/24 09:35:55;;;;;;;10.47;2.57;;;;;;;;;;5043396;28;20021;-69
2020/12/24 09:38:21;;;;;;;9.20;2.20;;;;;;;;;;5041397;28;20694;-69
2020/12/24 09:40:46;;;;;;;8.18;2.85;;;;;;;;;;5038395;28;20259;-68
2020/12/24 09:43:12;;;;;;;9.02;2.42;;;;;;;;;;5042575;28;20028;-68
2020/12/24 09:45:38;;;;;;;6.45;1.95;;;;;;;;;;5042330;28;20021;-68
2020/12/24 09:48:03;;;;;;;4.68;1.55;;;;;;;;;;5039937;28;20426;-69
2020/12/24 09:50:28;;;;;;;6.75;1.40;;;;;;;;;;5041730;28;20561;-69
2020/12/24 09:52:53;;;;;;;4.18;0.63;;;;;;;;;;5039774;28;20572;-69
2020/12/24 09:55:19;;;;;;;1.20;0.45;;;;;;;;;;5041468;28;20036;-69
2020/12/24 09:57:44;;;;;;;0.80;0.30;;;;;;;;;;5040410;28;20082;-69
2020/12/24 10:00:10;;;;;;;0.82;0.43;;;;;;;;;;5033230;28;20021;-69
2020/12/24 10:02:35;;;;;;;1.05;0.40;;;;;;;;;;5039125;28;20043;-68
2020/12/24 10:05:01;;;;;;;2.42;0.77;;;;;;;;;;5042796;28;20033;-69
2020/12/24 10:07:26;;;;;;;0.77;0.60;;;;;;;;;;5042644;28;20189;-69
2020/12/24 10:09:52;;;;;;;1.07;0.63;;;;;;;;;;5040851;28;20056;-69
2020/12/24 10:12:18;;;;;;;1.60;0.70;;;;;;;;;;5040303;28;21187;-69
2020/12/24 10:14:43;;;;;;;2.97;0.75;;;;;;;;;;5040407;28;20021;-69
2020/12/24 10:17:08;;;;;;;1.33;0.85;;;;;;;;;;5039991;28;20108;-69
2020/12/24 10:19:33;;;;;;;1.30;0.73;;;;;;;;;;5023632;28;20263;-68
2020/12/24 10:21:58;;;;;;;3.37;0.60;;;;;;;;;;5038689;28;20033;-68
2020/12/24 10:24:24;;;;;;;0.83;0.63;;;;;;;;;;5040319;28;20888;-68
2020/12/24 10:26:52;;;;;;;0.90;0.52;;;;;;;;;;5040476;28;20291;-69
2020/12/24 10:29:17;;;;;;;1.83;0.80;;;;;;;;;;5040810;28;20035;-67
2020/12/24 10:31:43;;;;;;;0.93;0.63;;;;;;;;;;5037419;28;20397;-68
2020/12/24 10:34:08;;;;;;;1.35;0.75;;;;;;;;;;5042202;28;20259;-69
2020/12/24 10:36:33;;;;;;;0.98;0.55;;;;;;;;;;5041886;28;20571;-69
2020/12/24 10:38:58;;;;;;;1.08;0.52;;;;;;;;;;5042338;28;20067;-68
2020/12/24 10:41:24;;;;;;;0.73;0.40;;;;;;;;;;5040187;28;20028;-68
2020/12/24 10:43:49;;;;;;;2.53;0.60;;;;;;;;;;5040825;28;20628;-68
2020/12/24 10:46:15;;;;;;;0.80;0.40;;;;;;;;;;5040020;28;20268;-68
2020/12/24 10:48:40;;;;;;;1.45;0.47;;;;;;;;;;5041931;28;20436;-68
2020/12/24 10:51:08;;;;;;;0.88;0.47;;;;;;;;;;5037778;28;20107;-68
2020/12/24 10:53:33;;;;;;;2.08;0.50;;;;;;;;;;5040489;28;20120;-68
2020/12/24 10:55:58;;;;;;;1.85;1.33;;;;;;;;;;5046072;28;20139;-68
2020/12/24 10:58:23;;;;;;;0.50;0.30;;;;;;;;;;5041975;28;20044;-68
2020/12/24 11:00:48;;;;;;;0.57;0.30;;;;;;;;;;5044561;28;20279;-68
2020/12/24 11:03:14;;;;;;;3.40;0.57;;;;;;;;;;5044339;28;20687;-68
2020/12/24 11:05:39;;;;;;;0.68;0.30;;;;;;;;;;5044952;28;20263;-68
2020/12/24 11:08:04;;;;;;;0.67;0.40;;;;;;;;;;5046321;28;20036;-68
2020/12/24 11:10:29;;;;;;;0.85;0.43;;;;;;;;;;5044093;28;20275;-68
2020/12/24 11:12:54;;;;;;;0.50;0.30;;;;;;;;;;5043418;28;20113;-68
2020/12/24 11:15:19;;;;;;;1.90;0.50;;;;;;;;;;5047995;28;20279;-68
2020/12/24 11:17:45;;;;;;;1.42;0.45;;;;;;;;;;5045228;28;20036;-68
2020/12/24 11:20:10;;;;;;;1.10;0.50;;;;;;;;;;5046604;28;20028;-68
2020/12/24 11:22:35;;;;;;;1.02;0.47;;;;;;;;;;5043908;28;20267;-68
2020/12/24 11:25:00;;;;;;;1.17;0.40;;;;;;;;;;5043409;28;20033;-68
2020/12/24 11:27:25;;;;;;;1.07;0.47;;;;;;;;;;5046382;28;20275;-69
2020/12/24 11:29:50;;;;;;;0.40;0.30;;;;;;;;;;5046742;28;20271;-68
2020/12/24 11:32:17;;;;;;;0.60;0.40;;;;;;;;;;5041590;28;20117;-68
2020/12/24 11:34:42;;;;;;;1.00;0.50;;;;;;;;;;5047913;28;20371;-68
2020/12/24 11:37:07;;;;;;;3.23;0.53;;;;;;;;;;5046787;28;20127;-68
2020/12/24 11:39:32;;;;;;;1.50;0.33;;;;;;;;;;5044552;28;20289;-68
2020/12/24 11:41:58;;;;;;;2.78;0.50;;;;;;;;;;5043953;28;20296;-68
2020/12/24 11:44:23;;;;;;;1.05;0.32;;;;;;;;;;5044342;28;20025;-67
2020/12/24 11:46:48;;;;;;;1.95;1.00;;;;;;;;;;5046298;28;20029;-67
2020/12/24 11:49:13;;;;;;;1.70;1.00;;;;;;;;;;5045422;28;20386;-67
2020/12/24 11:51:38;;;;;;;3.38;1.20;;;;;;;;;;5045457;28;20040;-67
2020/12/24 11:54:04;;;;;;;2.83;1.52;;;;;;;;;;5045363;28;20123;-68
2020/12/24 11:56:29;;;;;;;3.50;2.20;;;;;;;;;;5044494;28;20028;-68
2020/12/24 11:58:54;;;;;;;3.92;2.92;;;;;;;;;;5043993;28;20035;-68
2020/12/24 12:01:20;;;;;;;3.35;2.42;;;;;;;;;;5042322;28;20025;-68
2020/12/24 12:03:46;;;;;;;7.82;4.65;;;;;;;;;;5044678;28;20120;-68
2020/12/24 12:06:11;;;;;;;4.57;2.40;;;;;;;;;;5045621;28;20025;-68
2020/12/24 12:08:37;;;;;;;2.10;1.83;;;;;;;;;;5045412;28;20037;-68
2020/12/24 12:11:03;;;;;;;3.72;2.50;;;;;;;;;;5044618;28;20029;-68
2020/12/24 12:13:28;;;;;;;4.60;2.67;;;;;;;;;;5042032;28;20021;-68
2020/12/24 12:15:53;;;;;;;7.55;4.60;;;;;;;;;;5028519;28;20027;-68
2020/12/24 12:18:18;;;;;;;5.97;4.00;;;;;;;;;;5045372;28;20493;-68
2020/12/24 12:20:43;;;;;;;4.57;3.47;;;;;;;;;;5044631;28;20049;-69
2020/12/24 12:23:09;;;;;;;4.95;3.70;;;;;;;;;;5043588;28;20902;-69
2020/12/24 12:25:34;;;;;;;4.87;3.97;;;;;;;;;;5044315;28;20028;-68
2020/12/24 12:27:59;;;;;;;4.68;3.50;;;;;;;;;;5046030;28;20643;-67
2020/12/24 12:30:24;;;;;;;7.55;5.05;;;;;;;;;;5044197;28;20032;-67
2020/12/24 12:32:49;;;;;;;8.20;6.10;;;;;;;;;;5045026;28;20080;-67
2020/12/24 12:35:15;;;;;;;11.18;7.90;;;;;;;;;;5044823;28;20302;-68
2020/12/24 12:37:40;;;;;;;14.43;8.15;;;;;;;;;;5046209;28;20373;-67
2020/12/24 12:40:05;;;;;;;14.93;8.68;;;;;;;;;;5044535;28;20040;-68
2020/12/24 12:42:31;;;;;;;12.98;8.00;;;;;;;;;;5041383;28;20106;-68
2020/12/24 12:44:56;;;;;;;12.82;8.02;;;;;;;;;;5045174;28;20507;-67
2020/12/24 12:47:21;;;;;;;12.75;7.00;;;;;;;;;;5042802;28;20122;-67
2020/12/24 12:49:47;;;;;;;11.38;6.95;;;;;;;;;;5045663;28;20036;-68
2020/12/24 12:52:12;;;;;;;11.68;6.25;;;;;;;;;;5045300;28;20025;-68
2020/12/24 12:54:37;;;;;;;13.50;7.10;;;;;;;;;;5043260;28;20147;-68
2020/12/24 12:57:02;;;;;;;15.33;6.53;;;;;;;;;;5045029;28;20029;-68
2020/12/24 12:59:27;;;;;;;12.30;6.93;;;;;;;;;;5040644;28;21603;-68
2020/12/24 13:01:53;;;;;;;15.77;8.80;;;;;;;;;;5041645;28;20016;-68
2020/12/24 13:04:18;;;;;;;17.58;8.88;;;;;;;;;;5041370;28;20029;-67
2020/12/24 13:06:44;;;;;;;17.27;8.73;;;;;;;;;;5044319;28;20115;-67
2020/12/24 13:09:10;;;;;;;21.75;10.30;;;;;;;;;;5044845;28;20023;-68
2020/12/24 13:11:36;;;;;;;19.27;10.20;;;;;;;;;;5044588;28;20437;-67
2020/12/24 13:14:01;;;;;;;19.02;10.68;;;;;;;;;;5045731;28;20040;-66
2020/12/24 13:16:29;;;;;;;24.52;11.30;;;;;;;;;;5051935;28;20044;-67
2020/12/24 13:18:54;;;;;;;24.95;11.30;;;;;;;;;;5048998;28;20044;-68
2020/12/24 13:21:20;;;;;;;21.70;10.85;;;;;;;;;;5049529;28;20758;-68
2020/12/24 13:23:45;;;;;;;25.05;12.68;;;;;;;;;;5050294;28;20025;-69
2020/12/24 13:26:12;;;;;;;24.52;11.90;;;;;;;;;;5049510;28;20422;-69
2020/12/24 13:28:37;;;;;;;29.80;11.95;;;;;;;;;;5049509;28;20091;-69
2020/12/24 13:31:02;;;;;;;23.58;11.95;;;;;;;;;;5045221;28;20033;-69
2020/12/24 13:33:28;;;;;;;25.20;13.07;;;;;;;;;;5048534;28;20422;-68
2020/12/24 13:35:53;;;;;;;27.53;14.70;;;;;;;;;;5047106;28;20470;-69
2020/12/24 13:38:18;;;;;;;26.73;12.93;;;;;;;;;;5049472;28;20426;-68
2020/12/24 13:40:43;;;;;;;27.25;13.52;;;;;;;;;;5043187;28;20752;-69
2020/12/24 13:43:09;;;;;;;34.85;14.82;;;;;;;;;;5045181;28;20442;-67
2020/12/24 13:45:34;;;;;;;35.30;16.90;;;;;;;;;;5047195;28;20013;-67
2020/12/24 13:48:00;;;;;;;35.97;16.17;;;;;;;;;;5047803;28;20029;-68
2020/12/24 13:50:25;;;;;;;32.97;16.70;;;;;;;;;;5042103;28;20032;-68
2020/12/24 13:52:50;;;;;;;36.78;20.60;;;;;;;;;;5044536;28;20514;-68
2020/12/24 13:55:15;;;;;;;38.40;19.37;;;;;;;;;;5048361;28;20027;-68
2020/12/24 13:57:40;;;;;;;39.42;20.30;;;;;;;;;;5042395;28;20671;-67
2020/12/24 14:00:06;;;;;;;48.08;22.70;;;;;;;;;;5044892;28;20017;-67
2020/12/24 14:02:31;;;;;;;37.67;19.38;;;;;;;;;;5042025;28;20524;-67
2020/12/24 14:04:57;;;;;;;40.22;19.95;;;;;;;;;;5044702;28;20021;-68
2020/12/24 14:07:22;;;;;;;36.25;19.05;;;;;;;;;;5042354;28;20032;-67
2020/12/24 14:09:48;;;;;;;33.40;18.02;;;;;;;;;;5050378;28;20037;-68
2020/12/24 14:12:13;;;;;;;32.40;17.23;;;;;;;;;;5046904;28;20067;-68
2020/12/24 14:14:38;;;;;;;34.30;15.65;;;;;;;;;;5044547;28;20031;-68
2020/12/24 14:17:03;;;;;;;29.60;14.93;;;;;;;;;;5037937;28;20025;-68
2020/12/24 14:19:28;;;;;;;27.60;14.73;;;;;;;;;;5041351;28;20409;-68
2020/12/24 14:21:59;;;;;;;33.35;14.43;;;;;;;;;;5040604;28;20024;-68
2020/12/24 14:24:24;;;;;;;28.85;13.05;;;;;;;;;;5039075;28;20033;-68
2020/12/24 14:26:52;;;;;;;24.70;11.65;;;;;;;;;;5036335;28;20176;-68
2020/12/24 14:29:17;;;;;;;22.33;10.18;;;;;;;;;;5042826;28;20052;-67